sensor_id;sensor_type;location;lat;lon;timestamp;temperature;humidity
30648;DHT22;17683;53.360;9.736;2024-02-21T00:02:19;8.90;99.90
30648;DHT22;17683;53.360;9.736;2024-02-21T00:04:45;8.90;99.90
30648;DHT22;17683;53.360;9.736;2024-02-21T00:07:11;8.90;99.90
30648;DHT22;17683;53.360;9.736;2024-02-21T00:09:37;8.90;99.90
30648;DHT22;17683;53.360;9.736;2024-02-21T00:12:03;8.90;99.90
30648;DHT22;17683;53.360;9.736;2024-02-21T00:14:28;8.90;99.90
30648;DHT22;17683;53.360;9.736;2024-02-21T00:16:54;8.90;99.90
30648;DHT22;17683;53.360;9.736;2024-02-21T00:19:20;8.90;99.90
30648;DHT22;17683;53.360;9.736;2024-02-21T00:21:46;8.90;99.90
30648;DHT22;17683;53.360;9.736;2024-02-21T00:24:12;8.90;99.90
30648;DHT22;17683;53.360;9.736;2024-02-21T00:26:37;8.90;99.90
30648;DHT22;17683;53.360;9.736;2024-02-21T00:29:03;8.90;99.90
30648;DHT22;17683;53.360;9.736;2024-02-21T00:31:30;8.90;99.90
30648;DHT22;17683;53.360;9.736;2024-02-21T00:33:56;8.90;99.90
30648;DHT22;17683;53.360;9.736;2024-02-21T00:36:23;8.90;99.90
30648;DHT22;17683;53.360;9.736;2024-02-21T00:38:48;8.90;99.90
30648;DHT22;17683;53.360;9.736;2024-02-21T00:41:14;8.90;99.90
30648;DHT22;17683;53.360;9.736;2024-02-21T00:43:41;8.90;99.90
30648;DHT22;17683;53.360;9.736;2024-02-21T00:46:06;8.90;99.90
30648;DHT22;17683;53.360;9.736;2024-02-21T00:48:33;8.90;99.90
30648;DHT22;17683;53.360;9.736;2024-02-21T00:50:59;8.90;99.90
30648;DHT22;17683;53.360;9.736;2024-02-21T00:53:25;8.90;99.90
30648;DHT22;17683;53.360;9.736;2024-02-21T00:55:51;8.90;99.90
30648;DHT22;17683;53.360;9.736;2024-02-21T00:58:16;8.90;99.90
30648;DHT22;17683;53.360;9.736;2024-02-21T01:00:42;8.90;99.90
30648;DHT22;17683;53.360;9.736;2024-02-21T01:03:08;8.90;99.90
30648;DHT22;17683;53.360;9.736;2024-02-21T01:05:33;8.90;99.90
30648;DHT22;17683;53.360;9.736;2024-02-21T01:07:59;8.90;99.90
30648;DHT22;17683;53.360;9.736;2024-02-21T01:10:25;9.00;99.90
30648;DHT22;17683;53.360;9.736;2024-02-21T01:12:51;9.00;99.90
30648;DHT22;17683;53.360;9.736;2024-02-21T01:15:17;8.90;99.90
30648;DHT22;17683;53.360;9.736;2024-02-21T01:17:42;9.00;99.90
30648;DHT22;17683;53.360;9.736;2024-02-21T01:20:08;9.00;99.90
30648;DHT22;17683;53.360;9.736;2024-02-21T01:22:34;9.00;99.90
30648;DHT22;17683;53.360;9.736;2024-02-21T01:25:00;9.00;99.90
30648;DHT22;17683;53.360;9.736;2024-02-21T01:27:26;9.00;99.90
30648;DHT22;17683;53.360;9.736;2024-02-21T01:29:52;8.90;99.90
30648;DHT22;17683;53.360;9.736;2024-02-21T01:32:17;9.00;99.90
30648;DHT22;17683;53.360;9.736;2024-02-21T01:34:43;9.00;99.90
30648;DHT22;17683;53.360;9.736;2024-02-21T01:37:09;8.90;99.90
30648;DHT22;17683;53.360;9.736;2024-02-21T01:39:35;8.90;99.90
30648;DHT22;17683;53.360;9.736;2024-02-21T01:42:00;8.90;99.90
30648;DHT22;17683;53.360;9.736;2024-02-21T01:44:26;8.90;99.90
30648;DHT22;17683;53.360;9.736;2024-02-21T01:46:55;8.90;99.90
30648;DHT22;17683;53.360;9.736;2024-02-21T01:49:21;8.90;99.90
30648;DHT22;17683;53.360;9.736;2024-02-21T01:51:48;8.90;99.90
30648;DHT22;17683;53.360;9.736;2024-02-21T01:54:15;8.90;99.90
30648;DHT22;17683;53.360;9.736;2024-02-21T01:56:45;8.90;99.90
30648;DHT22;17683;53.360;9.736;2024-02-21T01:59:12;8.90;99.90
30648;DHT22;17683;53.360;9.736;2024-02-21T02:01:39;8.90;99.90
30648;DHT22;17683;53.360;9.736;2024-02-21T02:04:06;8.90;99.90
30648;DHT22;17683;53.360;9.736;2024-02-21T02:06:32;8.90;99.90
30648;DHT22;17683;53.360;9.736;2024-02-21T02:08:57;8.90;99.90
30648;DHT22;17683;53.360;9.736;2024-02-21T02:11:23;8.90;99.90
30648;DHT22;17683;53.360;9.736;2024-02-21T02:13:49;8.90;99.90
30648;DHT22;17683;53.360;9.736;2024-02-21T02:16:15;8.90;99.90
30648;DHT22;17683;53.360;9.736;2024-02-21T02:18:40;8.90;99.90
30648;DHT22;17683;53.360;9.736;2024-02-21T02:21:27;8.90;99.90
30648;DHT22;17683;53.360;9.736;2024-02-21T02:23:55;8.90;99.90
30648;DHT22;17683;53.360;9.736;2024-02-21T02:26:20;8.90;99.90
30648;DHT22;17683;53.360;9.736;2024-02-21T02:28:46;8.90;99.90
30648;DHT22;17683;53.360;9.736;2024-02-21T02:31:12;8.90;99.90
30648;DHT22;17683;53.360;9.736;2024-02-21T02:33:38;8.90;99.90
30648;DHT22;17683;53.360;9.736;2024-02-21T02:36:04;8.90;99.90
30648;DHT22;17683;53.360;9.736;2024-02-21T02:38:29;8.90;99.90
30648;DHT22;17683;53.360;9.736;2024-02-21T02:40:55;8.90;99.90
30648;DHT22;17683;53.360;9.736;2024-02-21T02:43:21;8.90;99.90
30648;DHT22;17683;53.360;9.736;2024-02-21T02:45:46;8.90;99.90
30648;DHT22;17683;53.360;9.736;2024-02-21T02:48:12;8.90;99.90
30648;DHT22;17683;53.360;9.736;2024-02-21T02:50:38;8.90;99.90
30648;DHT22;17683;53.360;9.736;2024-02-21T02:53:04;8.90;99.90
30648;DHT22;17683;53.360;9.736;2024-02-21T02:55:29;8.90;99.90
30648;DHT22;17683;53.360;9.736;2024-02-21T02:57:55;8.90;99.90
30648;DHT22;17683;53.360;9.736;2024-02-21T03:00:21;8.90;99.90
30648;DHT22;17683;53.360;9.736;2024-02-21T03:02:49;8.90;99.90
30648;DHT22;17683;53.360;9.736;2024-02-21T03:05:21;8.90;99.90
30648;DHT22;17683;53.360;9.736;2024-02-21T03:07:48;8.90;99.90
30648;DHT22;17683;53.360;9.736;2024-02-21T03:10:14;8.90;99.90
30648;DHT22;17683;53.360;9.736;2024-02-21T03:12:43;8.90;99.90
30648;DHT22;17683;53.360;9.736;2024-02-21T03:15:10;9.00;99.90
30648;DHT22;17683;53.360;9.736;2024-02-21T03:17:35;9.00;99.90
30648;DHT22;17683;53.360;9.736;2024-02-21T03:20:02;9.00;99.90
30648;DHT22;17683;53.360;9.736;2024-02-21T03:22:34;9.00;99.90
30648;DHT22;17683;53.360;9.736;2024-02-21T03:25:00;9.00;99.90
30648;DHT22;17683;53.360;9.736;2024-02-21T03:27:26;9.00;99.90
30648;DHT22;17683;53.360;9.736;2024-02-21T03:29:52;9.00;99.90
30648;DHT22;17683;53.360;9.736;2024-02-21T03:32:18;9.00;99.90
30648;DHT22;17683;53.360;9.736;2024-02-21T03:34:43;9.00;99.90
30648;DHT22;17683;53.360;9.736;2024-02-21T03:37:09;9.00;99.90
30648;DHT22;17683;53.360;9.736;2024-02-21T03:39:35;9.00;99.90
30648;DHT22;17683;53.360;9.736;2024-02-21T03:42:01;9.00;99.90
30648;DHT22;17683;53.360;9.736;2024-02-21T03:44:30;9.00;99.90
30648;DHT22;17683;53.360;9.736;2024-02-21T03:46:56;9.00;99.90
30648;DHT22;17683;53.360;9.736;2024-02-21T03:49:22;9.00;99.90
30648;DHT22;17683;53.360;9.736;2024-02-21T03:51:48;9.00;99.90
30648;DHT22;17683;53.360;9.736;2024-02-21T03:54:13;9.00;99.90
30648;DHT22;17683;53.360;9.736;2024-02-21T03:56:39;9.00;99.90
30648;DHT22;17683;53.360;9.736;2024-02-21T03:59:09;9.00;99.90
30648;DHT22;17683;53.360;9.736;2024-02-21T04:01:35;9.10;99.90
30648;DHT22;17683;53.360;9.736;2024-02-21T04:04:01;9.00;99.90
30648;DHT22;17683;53.360;9.736;2024-02-21T04:06:27;9.00;99.90
30648;DHT22;17683;53.360;9.736;2024-02-21T04:08:53;9.00;99.90
30648;DHT22;17683;53.360;9.736;2024-02-21T04:11:19;9.00;99.90
30648;DHT22;17683;53.360;9.736;2024-02-21T04:13:45;9.00;99.90
30648;DHT22;17683;53.360;9.736;2024-02-21T04:16:14;9.00;99.90
30648;DHT22;17683;53.360;9.736;2024-02-21T04:18:40;9.00;99.90
30648;DHT22;17683;53.360;9.736;2024-02-21T04:21:06;9.00;99.90
30648;DHT22;17683;53.360;9.736;2024-02-21T04:23:32;9.00;99.90
30648;DHT22;17683;53.360;9.736;2024-02-21T04:25:57;9.00;99.90
30648;DHT22;17683;53.360;9.736;2024-02-21T04:28:23;8.90;99.90
30648;DHT22;17683;53.360;9.736;2024-02-21T04:30:49;8.90;99.90
30648;DHT22;17683;53.360;9.736;2024-02-21T04:33:15;8.90;99.90
30648;DHT22;17683;53.360;9.736;2024-02-21T04:35:41;8.90;99.90
30648;DHT22;17683;53.360;9.736;2024-02-21T04:38:06;8.90;99.90
30648;DHT22;17683;53.360;9.736;2024-02-21T04:40:32;8.90;99.90
30648;DHT22;17683;53.360;9.736;2024-02-21T04:42:58;8.80;99.90
30648;DHT22;17683;53.360;9.736;2024-02-21T04:45:24;8.90;99.90
30648;DHT22;17683;53.360;9.736;2024-02-21T04:47:49;8.80;99.90
30648;DHT22;17683;53.360;9.736;2024-02-21T04:50:15;8.80;99.90
30648;DHT22;17683;53.360;9.736;2024-02-21T04:52:41;8.80;99.90
30648;DHT22;17683;53.360;9.736;2024-02-21T04:55:08;8.80;99.90
30648;DHT22;17683;53.360;9.736;2024-02-21T04:57:33;8.80;99.90
30648;DHT22;17683;53.360;9.736;2024-02-21T04:59:59;8.80;99.90
30648;DHT22;17683;53.360;9.736;2024-02-21T05:02:25;8.80;99.90
30648;DHT22;17683;53.360;9.736;2024-02-21T05:04:52;8.80;99.90
30648;DHT22;17683;53.360;9.736;2024-02-21T05:07:18;8.80;99.90
30648;DHT22;17683;53.360;9.736;2024-02-21T05:09:45;8.80;99.90
30648;DHT22;17683;53.360;9.736;2024-02-21T05:12:11;8.80;99.90
30648;DHT22;17683;53.360;9.736;2024-02-21T05:14:37;8.80;99.90
30648;DHT22;17683;53.360;9.736;2024-02-21T05:17:03;8.80;99.90
30648;DHT22;17683;53.360;9.736;2024-02-21T05:19:29;8.80;99.90
30648;DHT22;17683;53.360;9.736;2024-02-21T05:21:55;8.80;99.90
30648;DHT22;17683;53.360;9.736;2024-02-21T05:24:21;8.80;99.90
30648;DHT22;17683;53.360;9.736;2024-02-21T05:26:46;8.80;99.90
30648;DHT22;17683;53.360;9.736;2024-02-21T05:29:13;8.80;99.90
30648;DHT22;17683;53.360;9.736;2024-02-21T05:34:17;8.80;99.90
30648;DHT22;17683;53.360;9.736;2024-02-21T05:36:43;8.80;99.90
30648;DHT22;17683;53.360;9.736;2024-02-21T05:39:09;8.80;99.90
30648;DHT22;17683;53.360;9.736;2024-02-21T05:41:35;8.80;99.90
30648;DHT22;17683;53.360;9.736;2024-02-21T05:44:01;8.80;99.90
30648;DHT22;17683;53.360;9.736;2024-02-21T05:46:27;8.80;99.90
30648;DHT22;17683;53.360;9.736;2024-02-21T05:48:53;8.80;99.90
30648;DHT22;17683;53.360;9.736;2024-02-21T05:51:19;8.80;99.90
30648;DHT22;17683;53.360;9.736;2024-02-21T05:53:44;8.80;99.90
30648;DHT22;17683;53.360;9.736;2024-02-21T05:56:14;8.80;99.90
30648;DHT22;17683;53.360;9.736;2024-02-21T05:58:40;8.80;99.90
30648;DHT22;17683;53.360;9.736;2024-02-21T06:01:06;8.80;99.90
30648;DHT22;17683;53.360;9.736;2024-02-21T06:03:35;8.80;99.90
30648;DHT22;17683;53.360;9.736;2024-02-21T06:06:02;8.80;99.90
30648;DHT22;17683;53.360;9.736;2024-02-21T06:08:28;8.80;99.90
30648;DHT22;17683;53.360;9.736;2024-02-21T06:10:54;8.80;99.90
30648;DHT22;17683;53.360;9.736;2024-02-21T06:13:26;8.80;99.90
30648;DHT22;17683;53.360;9.736;2024-02-21T06:15:53;8.80;99.90
30648;DHT22;17683;53.360;9.736;2024-02-21T06:18:20;8.80;99.90
30648;DHT22;17683;53.360;9.736;2024-02-21T06:20:46;8.80;99.90
30648;DHT22;17683;53.360;9.736;2024-02-21T06:23:15;8.80;99.90
30648;DHT22;17683;53.360;9.736;2024-02-21T06:25:42;8.80;99.90
30648;DHT22;17683;53.360;9.736;2024-02-21T06:28:08;8.80;99.90
30648;DHT22;17683;53.360;9.736;2024-02-21T06:30:35;8.80;99.90
30648;DHT22;17683;53.360;9.736;2024-02-21T06:33:01;8.80;99.90
30648;DHT22;17683;53.360;9.736;2024-02-21T06:35:28;8.80;99.90
30648;DHT22;17683;53.360;9.736;2024-02-21T06:37:55;8.80;99.90
30648;DHT22;17683;53.360;9.736;2024-02-21T06:40:22;8.80;99.90
30648;DHT22;17683;53.360;9.736;2024-02-21T06:42:49;8.80;99.90
30648;DHT22;17683;53.360;9.736;2024-02-21T06:45:16;8.80;99.90
30648;DHT22;17683;53.360;9.736;2024-02-21T06:47:42;8.80;99.90
30648;DHT22;17683;53.360;9.736;2024-02-21T06:50:08;8.80;99.90
30648;DHT22;17683;53.360;9.736;2024-02-21T06:52:35;8.80;99.90
30648;DHT22;17683;53.360;9.736;2024-02-21T06:55:01;8.80;99.90
30648;DHT22;17683;53.360;9.736;2024-02-21T06:57:28;8.80;99.90
30648;DHT22;17683;53.360;9.736;2024-02-21T06:59:54;8.80;99.90
30648;DHT22;17683;53.360;9.736;2024-02-21T07:02:20;8.90;99.90
30648;DHT22;17683;53.360;9.736;2024-02-21T07:04:45;8.80;99.90
30648;DHT22;17683;53.360;9.736;2024-02-21T07:07:11;8.80;99.90
30648;DHT22;17683;53.360;9.736;2024-02-21T07:09:38;8.90;99.90
30648;DHT22;17683;53.360;9.736;2024-02-21T07:12:04;8.80;99.90
30648;DHT22;17683;53.360;9.736;2024-02-21T07:14:31;8.80;99.90
30648;DHT22;17683;53.360;9.736;2024-02-21T07:16:57;8.80;99.90
30648;DHT22;17683;53.360;9.736;2024-02-21T07:19:23;8.80;99.90
30648;DHT22;17683;53.360;9.736;2024-02-21T07:21:49;8.80;99.90
30648;DHT22;17683;53.360;9.736;2024-02-21T07:24:15;8.80;99.90
30648;DHT22;17683;53.360;9.736;2024-02-21T07:26:44;8.90;99.90
30648;DHT22;17683;53.360;9.736;2024-02-21T07:29:10;8.90;99.90
30648;DHT22;17683;53.360;9.736;2024-02-21T07:31:41;8.80;99.90
30648;DHT22;17683;53.360;9.736;2024-02-21T07:34:06;8.90;99.90
30648;DHT22;17683;53.360;9.736;2024-02-21T07:36:32;8.90;99.90
30648;DHT22;17683;53.360;9.736;2024-02-21T07:38:58;8.90;99.90
30648;DHT22;17683;53.360;9.736;2024-02-21T07:41:25;8.90;99.90
30648;DHT22;17683;53.360;9.736;2024-02-21T07:43:51;8.90;99.90
30648;DHT22;17683;53.360;9.736;2024-02-21T07:46:20;8.90;99.90
30648;DHT22;17683;53.360;9.736;2024-02-21T07:48:46;8.90;99.90
30648;DHT22;17683;53.360;9.736;2024-02-21T07:51:12;8.90;99.90
30648;DHT22;17683;53.360;9.736;2024-02-21T07:53:41;8.90;99.90
30648;DHT22;17683;53.360;9.736;2024-02-21T07:56:14;8.90;99.90
30648;DHT22;17683;53.360;9.736;2024-02-21T07:58:41;8.90;99.90
30648;DHT22;17683;53.360;9.736;2024-02-21T08:01:07;9.00;99.90
30648;DHT22;17683;53.360;9.736;2024-02-21T08:03:32;9.00;99.90
30648;DHT22;17683;53.360;9.736;2024-02-21T08:05:58;9.00;99.90
30648;DHT22;17683;53.360;9.736;2024-02-21T08:08:24;9.00;99.90
30648;DHT22;17683;53.360;9.736;2024-02-21T08:10:50;9.00;99.90
30648;DHT22;17683;53.360;9.736;2024-02-21T08:13:16;9.00;99.90
30648;DHT22;17683;53.360;9.736;2024-02-21T08:15:42;9.00;99.90
30648;DHT22;17683;53.360;9.736;2024-02-21T08:18:08;9.00;99.90
30648;DHT22;17683;53.360;9.736;2024-02-21T08:20:34;9.00;99.90
30648;DHT22;17683;53.360;9.736;2024-02-21T08:23:00;9.00;99.90
30648;DHT22;17683;53.360;9.736;2024-02-21T08:25:26;9.00;99.90
30648;DHT22;17683;53.360;9.736;2024-02-21T08:28:02;9.00;99.90
30648;DHT22;17683;53.360;9.736;2024-02-21T08:30:28;9.00;99.90
30648;DHT22;17683;53.360;9.736;2024-02-21T08:32:54;9.00;99.90
30648;DHT22;17683;53.360;9.736;2024-02-21T08:35:20;9.00;99.90
30648;DHT22;17683;53.360;9.736;2024-02-21T08:37:49;9.10;99.90
30648;DHT22;17683;53.360;9.736;2024-02-21T08:40:15;9.10;99.90
30648;DHT22;17683;53.360;9.736;2024-02-21T08:42:47;9.10;99.90
30648;DHT22;17683;53.360;9.736;2024-02-21T08:45:13;9.10;99.90
30648;DHT22;17683;53.360;9.736;2024-02-21T08:47:41;9.10;99.90
30648;DHT22;17683;53.360;9.736;2024-02-21T08:50:08;9.10;99.90
30648;DHT22;17683;53.360;9.736;2024-02-21T08:52:35;9.10;99.90
30648;DHT22;17683;53.360;9.736;2024-02-21T08:55:01;9.10;99.90
30648;DHT22;17683;53.360;9.736;2024-02-21T08:57:27;9.20;99.90
30648;DHT22;17683;53.360;9.736;2024-02-21T08:59:53;9.10;99.90
30648;DHT22;17683;53.360;9.736;2024-02-21T09:02:19;9.10;99.90
30648;DHT22;17683;53.360;9.736;2024-02-21T09:04:44;9.10;99.90
30648;DHT22;17683;53.360;9.736;2024-02-21T09:07:11;9.10;99.90
30648;DHT22;17683;53.360;9.736;2024-02-21T09:09:37;9.10;99.90
30648;DHT22;17683;53.360;9.736;2024-02-21T09:12:08;9.10;99.90
30648;DHT22;17683;53.360;9.736;2024-02-21T09:14:36;9.10;99.90
30648;DHT22;17683;53.360;9.736;2024-02-21T09:17:03;9.20;99.90
30648;DHT22;17683;53.360;9.736;2024-02-21T09:19:29;9.20;99.90
30648;DHT22;17683;53.360;9.736;2024-02-21T09:21:55;9.20;99.90
30648;DHT22;17683;53.360;9.736;2024-02-21T09:24:21;9.20;99.90
30648;DHT22;17683;53.360;9.736;2024-02-21T09:26:46;9.20;99.90
30648;DHT22;17683;53.360;9.736;2024-02-21T09:29:13;9.10;99.90
30648;DHT22;17683;53.360;9.736;2024-02-21T09:31:38;9.20;99.90
30648;DHT22;17683;53.360;9.736;2024-02-21T09:34:04;9.20;99.90
30648;DHT22;17683;53.360;9.736;2024-02-21T09:36:30;9.20;99.90
30648;DHT22;17683;53.360;9.736;2024-02-21T09:38:56;9.20;99.90
30648;DHT22;17683;53.360;9.736;2024-02-21T09:41:26;9.20;99.90
30648;DHT22;17683;53.360;9.736;2024-02-21T09:43:55;9.20;99.90
30648;DHT22;17683;53.360;9.736;2024-02-21T09:47:06;9.20;99.90
30648;DHT22;17683;53.360;9.736;2024-02-21T09:49:31;9.20;99.90
30648;DHT22;17683;53.360;9.736;2024-02-21T09:52:05;9.20;99.90
30648;DHT22;17683;53.360;9.736;2024-02-21T09:54:33;9.20;99.90
30648;DHT22;17683;53.360;9.736;2024-02-21T09:57:03;9.20;99.90
30648;DHT22;17683;53.360;9.736;2024-02-21T09:59:32;9.30;99.90
30648;DHT22;17683;53.360;9.736;2024-02-21T10:01:58;9.30;99.90
30648;DHT22;17683;53.360;9.736;2024-02-21T10:04:26;9.30;99.90
30648;DHT22;17683;53.360;9.736;2024-02-21T10:06:53;9.30;99.90
30648;DHT22;17683;53.360;9.736;2024-02-21T10:09:21;9.40;99.90
30648;DHT22;17683;53.360;9.736;2024-02-21T10:11:48;9.30;99.90
30648;DHT22;17683;53.360;9.736;2024-02-21T10:14:16;9.40;99.90
30648;DHT22;17683;53.360;9.736;2024-02-21T10:16:41;9.40;99.90
30648;DHT22;17683;53.360;9.736;2024-02-21T10:19:19;9.50;99.90
30648;DHT22;17683;53.360;9.736;2024-02-21T10:22:06;9.50;99.90
30648;DHT22;17683;53.360;9.736;2024-02-21T10:24:36;9.50;99.90
30648;DHT22;17683;53.360;9.736;2024-02-21T10:27:09;9.50;99.90
30648;DHT22;17683;53.360;9.736;2024-02-21T10:29:38;9.50;99.90
30648;DHT22;17683;53.360;9.736;2024-02-21T10:32:14;9.50;99.90
30648;DHT22;17683;53.360;9.736;2024-02-21T10:34:41;9.50;99.90
30648;DHT22;17683;53.360;9.736;2024-02-21T10:37:10;9.60;99.90
30648;DHT22;17683;53.360;9.736;2024-02-21T10:39:44;9.50;99.90
30648;DHT22;17683;53.360;9.736;2024-02-21T10:42:14;9.60;99.90
30648;DHT22;17683;53.360;9.736;2024-02-21T10:44:42;9.60;99.90
30648;DHT22;17683;53.360;9.736;2024-02-21T10:47:10;9.60;99.90
30648;DHT22;17683;53.360;9.736;2024-02-21T10:49:42;9.60;99.90
30648;DHT22;17683;53.360;9.736;2024-02-21T10:55:37;9.70;99.90
30648;DHT22;17683;53.360;9.736;2024-02-21T10:58:05;9.70;99.90
30648;DHT22;17683;53.360;9.736;2024-02-21T11:00:31;9.70;99.90
30648;DHT22;17683;53.360;9.736;2024-02-21T11:02:59;9.60;99.90
30648;DHT22;17683;53.360;9.736;2024-02-21T11:05:25;9.60;99.90
30648;DHT22;17683;53.360;9.736;2024-02-21T11:07:53;9.60;99.90
30648;DHT22;17683;53.360;9.736;2024-02-21T11:10:26;9.60;99.90
30648;DHT22;17683;53.360;9.736;2024-02-21T11:13:07;9.60;99.90
30648;DHT22;17683;53.360;9.736;2024-02-21T11:15:33;9.60;99.90
30648;DHT22;17683;53.360;9.736;2024-02-21T11:17:59;9.60;99.90
30648;DHT22;17683;53.360;9.736;2024-02-21T11:20:35;9.50;99.90
30648;DHT22;17683;53.360;9.736;2024-02-21T11:23:01;9.60;99.90
30648;DHT22;17683;53.360;9.736;2024-02-21T11:25:30;9.50;99.90
30648;DHT22;17683;53.360;9.736;2024-02-21T11:28:04;9.50;99.90
30648;DHT22;17683;53.360;9.736;2024-02-21T11:30:31;9.50;99.90
30648;DHT22;17683;53.360;9.736;2024-02-21T11:33:03;9.40;99.90
30648;DHT22;17683;53.360;9.736;2024-02-21T11:35:32;9.40;99.90
30648;DHT22;17683;53.360;9.736;2024-02-21T11:38:08;9.40;99.90
30648;DHT22;17683;53.360;9.736;2024-02-21T11:40:38;9.40;99.90
30648;DHT22;17683;53.360;9.736;2024-02-21T11:43:04;9.40;99.90
30648;DHT22;17683;53.360;9.736;2024-02-21T11:45:30;9.40;99.90
30648;DHT22;17683;53.360;9.736;2024-02-21T11:48:02;9.40;99.90
30648;DHT22;17683;53.360;9.736;2024-02-21T11:50:31;9.30;99.90
30648;DHT22;17683;53.360;9.736;2024-02-21T11:52:57;9.30;99.90
30648;DHT22;17683;53.360;9.736;2024-02-21T11:55:23;9.30;99.90
30648;DHT22;17683;53.360;9.736;2024-02-21T11:57:49;9.30;99.90
30648;DHT22;17683;53.360;9.736;2024-02-21T12:00:16;9.40;99.90
30648;DHT22;17683;53.360;9.736;2024-02-21T12:02:44;9.30;99.90
30648;DHT22;17683;53.360;9.736;2024-02-21T12:05:10;9.30;99.90
30648;DHT22;17683;53.360;9.736;2024-02-21T12:07:37;9.30;99.90
30648;DHT22;17683;53.360;9.736;2024-02-21T12:10:10;9.30;99.90
30648;DHT22;17683;53.360;9.736;2024-02-21T12:12:36;9.30;99.90
30648;DHT22;17683;53.360;9.736;2024-02-21T12:15:04;9.40;99.90
30648;DHT22;17683;53.360;9.736;2024-02-21T12:17:33;9.40;99.90
30648;DHT22;17683;53.360;9.736;2024-02-21T12:20:00;9.40;99.90
30648;DHT22;17683;53.360;9.736;2024-02-21T12:22:26;9.40;99.90
30648;DHT22;17683;53.360;9.736;2024-02-21T12:24:53;9.50;99.90
30648;DHT22;17683;53.360;9.736;2024-02-21T12:27:23;9.50;99.90
30648;DHT22;17683;53.360;9.736;2024-02-21T12:29:49;9.60;99.90
30648;DHT22;17683;53.360;9.736;2024-02-21T12:32:15;9.60;99.90
30648;DHT22;17683;53.360;9.736;2024-02-21T12:34:40;9.60;99.90
30648;DHT22;17683;53.360;9.736;2024-02-21T12:37:06;9.70;99.90
30648;DHT22;17683;53.360;9.736;2024-02-21T12:39:32;9.70;99.90
30648;DHT22;17683;53.360;9.736;2024-02-21T12:41:58;9.70;99.90
30648;DHT22;17683;53.360;9.736;2024-02-21T12:44:24;9.80;99.90
30648;DHT22;17683;53.360;9.736;2024-02-21T12:46:50;9.90;99.90
30648;DHT22;17683;53.360;9.736;2024-02-21T12:49:19;9.90;99.90
30648;DHT22;17683;53.360;9.736;2024-02-21T12:51:45;10.00;99.90
30648;DHT22;17683;53.360;9.736;2024-02-21T12:54:15;10.00;99.90
30648;DHT22;17683;53.360;9.736;2024-02-21T12:56:41;10.00;99.90
30648;DHT22;17683;53.360;9.736;2024-02-21T12:59:07;10.10;99.90
30648;DHT22;17683;53.360;9.736;2024-02-21T13:01:38;10.00;99.90
30648;DHT22;17683;53.360;9.736;2024-02-21T13:04:05;10.00;99.90
30648;DHT22;17683;53.360;9.736;2024-02-21T13:06:34;10.00;99.90
30648;DHT22;17683;53.360;9.736;2024-02-21T13:09:02;10.00;99.90
30648;DHT22;17683;53.360;9.736;2024-02-21T13:11:29;10.00;99.90
30648;DHT22;17683;53.360;9.736;2024-02-21T13:13:56;10.00;99.90
30648;DHT22;17683;53.360;9.736;2024-02-21T13:16:23;10.00;99.90
30648;DHT22;17683;53.360;9.736;2024-02-21T13:18:48;10.00;99.90
30648;DHT22;17683;53.360;9.736;2024-02-21T13:21:14;10.00;99.90
30648;DHT22;17683;53.360;9.736;2024-02-21T13:23:40;9.90;99.90
30648;DHT22;17683;53.360;9.736;2024-02-21T13:26:06;10.00;99.90
30648;DHT22;17683;53.360;9.736;2024-02-21T13:28:32;10.00;99.90
30648;DHT22;17683;53.360;9.736;2024-02-21T13:30:58;10.00;99.90
30648;DHT22;17683;53.360;9.736;2024-02-21T13:33:24;10.00;99.90
30648;DHT22;17683;53.360;9.736;2024-02-21T13:35:49;10.00;99.90
30648;DHT22;17683;53.360;9.736;2024-02-21T13:38:15;10.10;99.90
30648;DHT22;17683;53.360;9.736;2024-02-21T13:40:41;10.10;99.90
30648;DHT22;17683;53.360;9.736;2024-02-21T13:43:07;10.10;99.90
30648;DHT22;17683;53.360;9.736;2024-02-21T13:45:33;10.10;99.90
30648;DHT22;17683;53.360;9.736;2024-02-21T13:47:59;10.20;99.90
30648;DHT22;17683;53.360;9.736;2024-02-21T13:50:30;10.20;99.90
30648;DHT22;17683;53.360;9.736;2024-02-21T13:52:56;10.20;99.90
30648;DHT22;17683;53.360;9.736;2024-02-21T13:55:22;10.20;99.90
30648;DHT22;17683;53.360;9.736;2024-02-21T13:57:51;10.30;99.90
30648;DHT22;17683;53.360;9.736;2024-02-21T14:00:17;10.30;99.90
30648;DHT22;17683;53.360;9.736;2024-02-21T14:02:44;10.40;99.90
30648;DHT22;17683;53.360;9.736;2024-02-21T14:05:10;10.40;99.90
30648;DHT22;17683;53.360;9.736;2024-02-21T14:07:36;10.40;99.90
30648;DHT22;17683;53.360;9.736;2024-02-21T14:10:02;10.30;99.90
30648;DHT22;17683;53.360;9.736;2024-02-21T14:12:29;10.40;99.90
30648;DHT22;17683;53.360;9.736;2024-02-21T14:14:54;10.40;99.90
30648;DHT22;17683;53.360;9.736;2024-02-21T14:17:24;10.40;99.90
30648;DHT22;17683;53.360;9.736;2024-02-21T14:19:52;10.40;99.90
30648;DHT22;17683;53.360;9.736;2024-02-21T14:22:18;10.40;99.90
30648;DHT22;17683;53.360;9.736;2024-02-21T14:24:45;10.40;99.90
30648;DHT22;17683;53.360;9.736;2024-02-21T14:27:11;10.40;99.90
30648;DHT22;17683;53.360;9.736;2024-02-21T14:29:38;10.30;99.90
30648;DHT22;17683;53.360;9.736;2024-02-21T14:32:04;10.30;99.90
30648;DHT22;17683;53.360;9.736;2024-02-21T14:34:31;10.30;99.90
30648;DHT22;17683;53.360;9.736;2024-02-21T14:36:56;10.40;99.90
30648;DHT22;17683;53.360;9.736;2024-02-21T14:39:22;10.30;99.90
30648;DHT22;17683;53.360;9.736;2024-02-21T14:41:48;10.30;99.90
30648;DHT22;17683;53.360;9.736;2024-02-21T14:44:14;10.30;99.90
30648;DHT22;17683;53.360;9.736;2024-02-21T14:46:40;10.30;99.90
30648;DHT22;17683;53.360;9.736;2024-02-21T14:49:06;10.20;99.90
30648;DHT22;17683;53.360;9.736;2024-02-21T14:51:31;10.20;99.90
30648;DHT22;17683;53.360;9.736;2024-02-21T14:54:02;10.20;99.90
30648;DHT22;17683;53.360;9.736;2024-02-21T14:56:27;10.20;99.90
30648;DHT22;17683;53.360;9.736;2024-02-21T14:58:53;10.20;99.90
30648;DHT22;17683;53.360;9.736;2024-02-21T15:01:19;10.20;99.90
30648;DHT22;17683;53.360;9.736;2024-02-21T15:03:45;10.20;99.90
30648;DHT22;17683;53.360;9.736;2024-02-21T15:06:11;10.10;99.90
30648;DHT22;17683;53.360;9.736;2024-02-21T15:08:37;10.10;99.90
30648;DHT22;17683;53.360;9.736;2024-02-21T15:11:03;10.10;99.90
30648;DHT22;17683;53.360;9.736;2024-02-21T15:13:29;10.10;99.90
30648;DHT22;17683;53.360;9.736;2024-02-21T15:15:56;10.10;99.90
30648;DHT22;17683;53.360;9.736;2024-02-21T15:18:21;10.00;99.90
30648;DHT22;17683;53.360;9.736;2024-02-21T15:20:47;10.00;99.90
30648;DHT22;17683;53.360;9.736;2024-02-21T15:23:13;10.00;99.90
30648;DHT22;17683;53.360;9.736;2024-02-21T15:25:42;10.00;99.90
30648;DHT22;17683;53.360;9.736;2024-02-21T15:28:09;10.00;99.90
30648;DHT22;17683;53.360;9.736;2024-02-21T15:30:36;9.90;99.90
30648;DHT22;17683;53.360;9.736;2024-02-21T15:33:01;9.90;99.90
30648;DHT22;17683;53.360;9.736;2024-02-21T15:35:30;9.90;99.90
30648;DHT22;17683;53.360;9.736;2024-02-21T15:37:57;9.80;99.90
30648;DHT22;17683;53.360;9.736;2024-02-21T15:40:23;9.80;99.90
30648;DHT22;17683;53.360;9.736;2024-02-21T15:42:49;9.80;99.90
30648;DHT22;17683;53.360;9.736;2024-02-21T15:45:15;9.80;99.90
30648;DHT22;17683;53.360;9.736;2024-02-21T15:47:41;9.80;99.90